Time;durP1;ratioP1;P1;durP2;ratioP2;P2;SDS_P1;SDS_P2;PMS_P1;PMS_P2;Temp;Humidity;BMP_temperature;BMP_pressure;BME280_temperature;BME280_humidity;BME280_pressure;Samples;Min_cycle;Max_cycle;Signal;HPM_P1;HPM_P2
2023/12/27 00:00:15;;;;;;;22.50;3.10;;;;;;;6.65;100.00;99831.13;5027044;28;20049;-50
2023/12/27 00:02:42;;;;;;;16.92;3.72;;;;;;;6.65;100.00;99829.19;5022702;28;20052;-52
2023/12/27 00:05:09;;;;;;;14.25;2.83;;;;;;;6.66;100.00;99821.75;5024572;28;20413;-52
2023/12/27 00:07:37;;;;;;;29.27;5.78;;;;;;;6.66;100.00;99810.75;5025252;28;20059;-57
2023/12/27 00:10:05;;;;;;;19.83;3.30;;;;;;;6.66;100.00;99808.81;5029606;28;20789;-59
2023/12/27 00:12:40;;;;;;;16.15;3.88;;;;;;;6.66;100.00;99810.75;5029627;28;20052;-52
2023/12/27 00:15:10;;;;;;;17.05;3.10;;;;;;;6.66;100.00;99786.81;5044839;28;20410;-53
2023/12/27 00:17:40;;;;;;;13.50;3.33;;;;;;;6.66;100.00;99770.31;5015379;28;20113;-49
2023/12/27 00:20:14;;;;;;;18.70;4.05;;;;;;;6.64;100.00;99780.06;5013007;28;20050;-51
2023/12/27 00:22:42;;;;;;;8.65;2.75;;;;;;;6.63;100.00;99754.50;5029202;28;20068;-53
2023/12/27 00:25:09;;;;;;;20.55;4.30;;;;;;;6.62;100.00;99747.38;5037405;28;20060;-51
2023/12/27 00:27:37;;;;;;;12.38;4.03;;;;;;;6.63;100.00;99749.00;5045780;28;20049;-53
2023/12/27 00:30:05;;;;;;;13.65;2.97;;;;;;;6.64;100.00;99727.78;5027914;28;20057;-54
2023/12/27 00:32:32;;;;;;;14.95;3.55;;;;;;;6.67;100.00;99732.63;5027433;28;20065;-51
2023/12/27 00:35:00;;;;;;;20.17;4.50;;;;;;;6.67;100.00;99716.88;5028715;28;20064;-53
2023/12/27 00:37:27;;;;;;;34.45;4.55;;;;;;;6.70;100.00;99705.19;5027771;28;20057;-53
2023/12/27 00:39:54;;;;;;;19.77;4.30;;;;;;;6.74;100.00;99683.31;5028145;28;20045;-53
2023/12/27 00:42:22;;;;;;;27.60;7.55;;;;;;;6.77;100.00;99676.31;5027802;28;20053;-53
2023/12/27 00:44:50;;;;;;;26.02;6.70;;;;;;;6.78;100.00;99667.72;5028700;28;20057;-51
2023/12/27 00:47:17;;;;;;;26.70;5.95;;;;;;;6.80;100.00;99642.63;5028183;28;20052;-53
2023/12/27 00:49:44;;;;;;;21.35;5.18;;;;;;;6.82;100.00;99651.34;5028840;28;20111;-55
2023/12/27 00:52:13;;;;;;;29.25;3.63;;;;;;;6.83;100.00;99639.19;5028905;28;20464;-53
2023/12/27 00:54:40;;;;;;;29.35;5.88;;;;;;;6.84;100.00;99614.06;5028425;28;20049;-52
2023/12/27 00:57:08;;;;;;;26.05;3.95;;;;;;;6.86;100.00;99602.75;5041370;28;20386;-49
2023/12/27 00:59:35;;;;;;;24.90;5.47;;;;;;;6.89;100.00;99624.03;5027413;28;20064;-52
2023/12/27 01:02:04;;;;;;;16.02;4.25;;;;;;;6.92;100.00;99590.31;5028631;28;20052;-51
2023/12/27 01:04:33;;;;;;;18.02;4.45;;;;;;;6.94;100.00;99574.25;5027937;28;20064;-52
2023/12/27 01:07:03;;;;;;;;;;;;;;;6.96;100.00;99570.03;5028693;28;20041;-51
2023/12/27 01:09:30;;;;;;;16.45;4.85;;;;;;;6.98;100.00;99547.66;5027901;28;19944;-52
2023/12/27 01:11:59;;;;;;;28.25;4.22;;;;;;;6.99;100.00;99530.78;5027828;28;20043;-51
2023/12/27 01:14:26;;;;;;;18.20;4.25;;;;;;;7.01;100.00;99520.25;5027214;28;20049;-52
2023/12/27 01:16:54;;;;;;;22.95;4.55;;;;;;;7.03;100.00;99509.69;5009696;28;20044;-49
2023/12/27 01:19:21;;;;;;;24.90;5.07;;;;;;;7.03;100.00;99487.66;5041226;28;20053;-50
2023/12/27 01:21:48;;;;;;;23.48;4.40;;;;;;;7.04;100.00;99481.00;5026448;28;20049;-51
2023/12/27 01:24:17;;;;;;;28.60;4.38;;;;;;;7.09;100.00;99474.47;5026652;28;20045;-50
2023/12/27 01:26:44;;;;;;;34.85;6.90;;;;;;;7.11;100.00;99461.13;5027703;28;20053;-50
2023/12/27 01:29:11;;;;;;;26.13;7.22;;;;;;;7.13;100.00;99450.56;5027279;28;20064;-51
2023/12/27 01:31:39;;;;;;;20.40;5.55;;;;;;;7.16;100.00;99438.84;5027619;28;20041;-52
2023/12/27 01:34:06;;;;;;;23.95;5.05;;;;;;;7.18;100.00;99411.75;5027140;28;20062;-53
2023/12/27 01:36:45;;;;;;;26.10;4.85;;;;;;;7.22;100.00;99390.66;5027385;28;20045;-50
2023/12/27 01:39:12;;;;;;;27.80;6.30;;;;;;;7.24;100.00;99382.84;5027221;28;20061;-52
2023/12/27 01:41:40;;;;;;;26.63;6.15;;;;;;;7.28;100.00;99348.72;5027395;28;20466;-49
2023/12/27 01:44:07;;;;;;;20.38;3.95;;;;;;;7.32;100.00;99332.28;5027235;28;20053;-52
2023/12/27 01:46:34;;;;;;;25.58;5.53;;;;;;;7.39;100.00;99335.22;5027544;28;20050;-51
2023/12/27 01:49:02;;;;;;;30.30;6.43;;;;;;;7.45;100.00;99320.00;5011953;28;20041;-53
2023/12/27 01:51:30;;;;;;;19.15;3.65;;;;;;;7.50;100.00;99314.22;5014420;28;20049;-52
2023/12/27 01:54:02;;;;;;;34.30;6.07;;;;;;;7.54;100.00;99293.09;5030836;28;20056;-51
2023/12/27 01:56:29;;;;;;;;;;;;;;;7.60;100.00;99286.13;5031938;28;20053;-53
2023/12/27 01:58:57;;;;;;;29.13;5.53;;;;;;;7.62;100.00;99283.81;5018480;28;19931;-53
2023/12/27 02:01:25;;;;;;;22.15;6.00;;;;;;;7.68;100.00;99271.34;5030443;28;20443;-51
2023/12/27 02:03:52;;;;;;;18.75;4.93;;;;;;;7.76;100.00;99255.75;5031339;28;20057;-52
2023/12/27 02:06:21;;;;;;;29.10;5.05;;;;;;;7.82;100.00;99244.09;5031214;28;20057;-53
2023/12/27 02:08:52;;;;;;;25.10;5.25;;;;;;;7.89;100.00;99219.44;5030536;28;20053;-50
2023/12/27 02:11:22;;;;;;;25.23;5.55;;;;;;;7.95;100.00;99215.22;5030773;28;20049;-51
2023/12/27 02:13:49;;;;;;;16.77;5.43;;;;;;;8.02;100.00;99209.06;5039937;28;20053;-50
2023/12/27 02:16:20;;;;;;;17.55;5.13;;;;;;;8.09;100.00;99187.13;5037596;28;20046;-52
2023/12/27 02:18:48;;;;;;;;;;;;;;;8.12;100.00;99180.09;5042106;28;20145;-51
2023/12/27 02:21:17;;;;;;;16.90;4.35;;;;;;;8.15;100.00;99173.84;5030937;28;20386;-53
2023/12/27 02:23:48;;;;;;;22.48;5.55;;;;;;;8.18;100.00;99149.06;5030787;28;20049;-50
2023/12/27 02:26:15;;;;;;;18.13;5.30;;;;;;;8.23;100.00;99139.72;5030765;28;20065;-52
2023/12/27 02:28:45;;;;;;;23.58;5.28;;;;;;;8.29;100.00;99135.50;5030850;28;20526;-51
2023/12/27 02:31:12;;;;;;;30.40;5.57;;;;;;;8.32;100.00;99137.53;5029108;28;20056;-53
2023/12/27 02:33:44;;;;;;;27.50;5.82;;;;;;;8.36;100.00;99121.84;5030474;28;20045;-53
2023/12/27 02:36:11;;;;;;;22.60;6.27;;;;;;;8.38;100.00;99106.53;5023838;28;20080;-52
2023/12/27 02:38:39;;;;;;;26.98;6.53;;;;;;;8.41;100.00;99099.47;5037341;28;20467;-53
2023/12/27 02:41:06;;;;;;;21.05;5.35;;;;;;;8.45;100.00;99108.59;5023199;28;20399;-51
2023/12/27 02:43:33;;;;;;;15.70;5.72;;;;;;;8.51;100.00;99096.06;5036957;28;20080;-51
2023/12/27 02:46:01;;;;;;;33.08;6.43;;;;;;;8.54;100.00;99078.78;5030892;28;20045;-50
2023/12/27 02:48:29;;;;;;;33.55;7.03;;;;;;;8.55;100.00;99083.91;5030500;28;20068;-52
2023/12/27 02:50:56;;;;;;;32.50;7.28;;;;;;;8.59;100.00;99067.44;5029989;28;20037;-53
2023/12/27 02:53:24;;;;;;;28.85;6.68;;;;;;;8.60;100.00;99063.50;5029907;28;20060;-52
2023/12/27 02:55:51;;;;;;;24.83;5.97;;;;;;;8.63;100.00;99040.69;5021792;28;20042;-53
2023/12/27 02:58:18;;;;;;;16.92;4.55;;;;;;;8.69;100.00;99050.22;5012450;28;20053;-51
2023/12/27 03:00:47;;;;;;;14.60;3.38;;;;;;;8.74;100.00;99038.84;5113207;22;20024;-46
2023/12/27 03:03:14;;;;;;;14.88;3.58;;;;;;;8.80;100.00;99033.81;5073029;28;20048;-45
2023/12/27 03:05:42;;;;;;;16.83;4.93;;;;;;;8.83;100.00;99022.03;5090218;28;20051;-46
2023/12/27 03:08:09;;;;;;;10.43;2.80;;;;;;;8.85;100.00;99014.16;5085328;28;20044;-49
2023/12/27 03:10:36;;;;;;;8.35;2.35;;;;;;;8.88;100.00;99002.38;5060012;28;20401;-49
2023/12/27 03:13:05;;;;;;;15.50;3.78;;;;;;;8.90;100.00;98995.31;5066812;28;20047;-49
2023/12/27 03:15:32;;;;;;;6.70;2.50;;;;;;;8.91;100.00;98976.78;5070226;28;20044;-46
2023/12/27 03:17:59;;;;;;;9.95;3.90;;;;;;;8.93;100.00;98966.16;5069708;28;20041;-49
2023/12/27 03:20:27;;;;;;;4.75;2.22;;;;;;;8.97;100.00;98962.28;5069601;28;20036;-47
2023/12/27 03:22:55;;;;;;;20.50;4.80;;;;;;;9.00;100.00;98956.00;5073450;28;20575;-45
2023/12/27 03:25:22;;;;;;;6.03;2.40;;;;;;;9.04;100.00;98934.75;5077651;28;20063;-46
2023/12/27 03:27:50;;;;;;;4.10;1.58;;;;;;;9.10;100.00;98935.22;5083035;28;20040;-49
2023/12/27 03:30:17;;;;;;;9.32;2.45;;;;;;;9.12;100.00;98924.56;5081777;28;20052;-49
2023/12/27 03:32:45;;;;;;;10.70;2.45;;;;;;;9.14;100.00;98923.03;5070291;28;20044;-45
2023/12/27 03:35:12;;;;;;;10.88;1.73;;;;;;;9.14;100.00;98914.75;5068001;28;20409;-46
2023/12/27 03:37:39;;;;;;;14.77;2.45;;;;;;;9.15;100.00;98880.44;5068941;28;20044;-46
2023/12/27 03:40:08;;;;;;;9.68;1.75;;;;;;;9.17;100.00;98878.09;5069329;28;20044;-50
2023/12/27 03:42:35;;;;;;;8.40;2.72;;;;;;;9.20;100.00;98854.44;5068811;28;20049;-48
2023/12/27 03:45:03;;;;;;;6.50;2.58;;;;;;;9.22;100.00;98835.53;5068274;28;20036;-46
2023/12/27 03:47:30;;;;;;;10.40;2.00;;;;;;;9.25;100.00;98845.00;5069410;28;20509;-45
2023/12/27 03:49:57;;;;;;;7.50;2.42;;;;;;;9.26;100.00;98830.03;5068909;28;20052;-48
2023/12/27 03:52:26;;;;;;;9.88;2.40;;;;;;;9.28;100.00;98839.53;5069303;28;20044;-48
2023/12/27 03:54:53;;;;;;;7.90;1.85;;;;;;;9.29;100.00;98829.28;5068822;28;20052;-51
2023/12/27 03:57:20;;;;;;;15.73;3.33;;;;;;;9.29;100.00;98818.22;5068800;28;20048;-45
2023/12/27 03:59:48;;;;;;;9.15;2.67;;;;;;;9.32;100.00;98811.94;5068450;28;20405;-47
2023/12/27 04:02:15;;;;;;;15.80;3.65;;;;;;;9.33;100.00;98799.69;5068735;28;20049;-45
2023/12/27 04:04:42;;;;;;;10.73;3.03;;;;;;;9.33;100.00;98792.22;5068228;28;20063;-46
2023/12/27 04:07:10;;;;;;;9.98;3.95;;;;;;;9.34;100.00;98787.50;5068746;28;20045;-45
2023/12/27 04:09:40;;;;;;;11.52;4.22;;;;;;;9.35;100.00;98775.25;5069673;28;20044;-49
2023/12/27 04:12:09;;;;;;;9.30;1.80;;;;;;;9.36;100.00;98791.44;5064539;28;20056;-46
2023/12/27 04:14:36;;;;;;;10.50;3.65;;;;;;;9.35;100.00;98772.50;5066626;28;20048;-48
2023/12/27 04:17:04;;;;;;;9.23;2.38;;;;;;;9.37;100.00;98757.13;5068587;28;20040;-50
2023/12/27 04:19:31;;;;;;;12.82;3.25;;;;;;;9.39;100.00;98787.13;5068144;28;20581;-45
2023/12/27 04:21:59;;;;;;;4.70;1.30;;;;;;;9.42;100.00;98772.56;5066313;28;20502;-45
2023/12/27 04:24:27;;;;;;;8.73;3.42;;;;;;;9.41;100.00;98746.91;5068396;28;20802;-45
2023/12/27 04:26:54;;;;;;;6.22;1.85;;;;;;;9.43;100.00;98735.47;5066942;28;20049;-50
2023/12/27 04:29:22;;;;;;;13.75;2.88;;;;;;;9.45;100.00;98733.13;5068787;28;20497;-48
2023/12/27 04:31:49;;;;;;;16.85;2.92;;;;;;;9.45;100.00;98738.66;5067386;28;20048;-47
2023/12/27 04:34:16;;;;;;;14.98;3.28;;;;;;;9.45;100.00;98716.56;5067872;28;20044;-49
2023/12/27 04:36:46;;;;;;;3.97;0.93;;;;;;;9.46;100.00;98713.38;5067321;28;20094;-45
2023/12/27 04:39:13;;;;;;;8.18;2.60;;;;;;;9.49;100.00;98695.25;5067613;28;20052;-45
2023/12/27 04:41:40;;;;;;;10.70;2.33;;;;;;;9.49;100.00;98700.78;5067337;28;20049;-45
2023/12/27 04:44:08;;;;;;;15.35;3.20;;;;;;;9.51;100.00;98692.88;5054753;28;20045;-45
2023/12/27 04:46:39;;;;;;;11.25;3.03;;;;;;;9.51;100.00;98703.94;5080070;28;20059;-47
2023/12/27 04:49:08;;;;;;;16.85;4.20;;;;;;;9.52;100.00;98691.72;5068358;28;20044;-45
2023/12/27 04:51:36;;;;;;;21.95;4.97;;;;;;;9.51;100.00;98681.84;5079928;28;20059;-49
2023/12/27 04:54:03;;;;;;;19.35;3.90;;;;;;;9.51;100.00;98652.25;5054837;28;20055;-46
2023/12/27 04:56:31;;;;;;;21.70;4.22;;;;;;;9.51;100.00;98654.22;5067232;28;20052;-45
2023/12/27 04:58:58;;;;;;;12.45;2.90;;;;;;;9.52;100.00;98633.72;5067883;28;20047;-45
2023/12/27 05:01:25;;;;;;;12.15;2.80;;;;;;;9.54;100.00;98623.84;5080951;28;20078;-45
2023/12/27 05:03:52;;;;;;;5.60;2.00;;;;;;;9.54;100.00;98623.06;5067986;28;20047;-45
2023/12/27 05:06:20;;;;;;;7.10;2.58;;;;;;;9.53;100.00;98604.91;5067730;28;20052;-45
2023/12/27 05:08:47;;;;;;;8.88;1.80;;;;;;;9.54;100.00;98599.00;5061368;28;20045;-44
2023/12/27 05:11:21;;;;;;;9.30;1.67;;;;;;;9.54;100.00;98579.66;5059106;28;20048;-45
2023/12/27 05:13:49;;;;;;;8.43;1.75;;;;;;;9.57;100.00;98569.78;5067564;28;20048;-51
2023/12/27 05:16:17;;;;;;;10.13;1.90;;;;;;;9.57;100.00;98559.53;5064373;28;20045;-48
2023/12/27 05:18:45;;;;;;;11.77;2.08;;;;;;;9.57;100.00;98547.69;5057303;28;20055;-50
2023/12/27 05:21:14;;;;;;;6.10;1.70;;;;;;;9.57;100.00;98528.34;5067399;28;20056;-46
2023/12/27 05:23:42;;;;;;;9.88;2.92;;;;;;;9.56;100.00;98518.47;5077753;28;20780;-45
2023/12/27 05:26:10;;;;;;;8.45;1.80;;;;;;;9.57;100.00;98518.09;5069157;28;20572;-45
2023/12/27 05:28:37;;;;;;;5.93;2.22;;;;;;;9.57;100.00;98526.38;5066534;28;20044;-46
2023/12/27 05:31:04;;;;;;;3.90;1.65;;;;;;;9.59;100.00;98495.59;5067292;28;20061;-49
2023/12/27 05:33:32;;;;;;;10.75;3.33;;;;;;;9.60;100.00;98502.72;5065958;28;20041;-46
2023/12/27 05:35:59;;;;;;;14.27;3.55;;;;;;;9.61;100.00;98498.78;5066522;28;20051;-46
2023/12/27 05:38:27;;;;;;;10.68;2.85;;;;;;;9.61;100.00;98496.03;5067921;28;20045;-45
2023/12/27 05:40:54;;;;;;;19.75;3.35;;;;;;;9.63;100.00;98479.84;5065180;28;20044;-45
2023/12/27 05:43:21;;;;;;;6.95;2.20;;;;;;;9.64;100.00;98489.69;5066671;28;20059;-45
2023/12/27 05:45:49;;;;;;;9.32;3.33;;;;;;;9.66;100.00;98468.00;5072308;28;20043;-44
2023/12/27 05:48:16;;;;;;;8.70;2.15;;;;;;;9.66;100.00;98454.94;5075043;28;20055;-45
2023/12/27 05:50:44;;;;;;;4.35;1.75;;;;;;;9.67;100.00;98436.41;5066924;28;20048;-46
2023/12/27 05:53:11;;;;;;;11.32;3.65;;;;;;;9.66;100.00;98429.31;5066748;28;20056;-48
2023/12/27 05:55:41;;;;;;;6.35;2.95;;;;;;;9.68;100.00;98421.41;5066879;28;20049;-46
2023/12/27 05:58:08;;;;;;;9.82;2.85;;;;;;;9.69;100.00;98409.16;5067063;28;20045;-47
2023/12/27 06:00:35;;;;;;;7.70;1.80;;;;;;;9.71;100.00;98399.31;5058563;28;20049;-49
2023/12/27 06:03:03;;;;;;;4.35;1.50;;;;;;;9.71;100.00;98398.53;5074363;28;20052;-45
2023/12/27 06:05:32;;;;;;;5.68;1.98;;;;;;;9.73;100.00;98383.13;5066591;28;20736;-47
2023/12/27 06:07:59;;;;;;;5.22;1.38;;;;;;;9.74;100.00;98364.59;5067176;28;20053;-46
2023/12/27 06:10:28;;;;;;;7.22;1.80;;;;;;;9.75;100.00;98361.41;5067490;28;20048;-45
2023/12/27 06:12:55;;;;;;;4.78;2.47;;;;;;;9.76;100.00;98356.69;5062685;28;20074;-48
2023/12/27 06:15:22;;;;;;;7.80;1.33;;;;;;;9.77;100.00;98336.13;5075587;28;20059;-47
2023/12/27 06:17:50;;;;;;;6.38;1.88;;;;;;;9.79;100.00;98340.06;5072665;28;20055;-47
2023/12/27 06:20:17;;;;;;;7.03;2.00;;;;;;;9.81;100.00;98336.94;5077830;28;20061;-45
2023/12/27 06:22:45;;;;;;;6.53;1.95;;;;;;;9.82;100.00;98330.22;5066766;28;20045;-45
2023/12/27 06:25:12;;;;;;;6.00;1.77;;;;;;;9.83;100.00;98306.91;5066932;28;21278;-44
2023/12/27 06:27:40;;;;;;;13.43;3.55;;;;;;;9.83;100.00;98295.88;5065753;28;20111;-48
2023/12/27 06:30:08;;;;;;;6.18;1.92;;;;;;;9.86;100.00;98300.59;5067010;28;20064;-47
2023/12/27 06:32:36;;;;;;;5.55;1.25;;;;;;;9.88;100.00;98295.44;5066714;28;20059;-47
2023/12/27 06:35:03;;;;;;;5.90;1.77;;;;;;;9.90;100.00;98284.00;5068592;28;20052;-46
2023/12/27 06:37:31;;;;;;;9.80;1.90;;;;;;;9.92;100.00;98287.94;5069974;28;20044;-46
2023/12/27 06:39:58;;;;;;;3.40;1.30;;;;;;;9.97;100.00;98270.94;5070243;28;20048;-46
2023/12/27 06:42:25;;;;;;;1.70;1.10;;;;;;;10.03;100.00;98269.34;5069588;28;20052;-47
2023/12/27 06:44:54;;;;;;;5.88;2.05;;;;;;;10.06;100.00;98265.00;5070445;28;20040;-47
2023/12/27 06:47:21;;;;;;;4.38;1.38;;;;;;;10.09;100.00;98262.19;5068766;28;20043;-46
2023/12/27 06:49:48;;;;;;;3.22;1.33;;;;;;;10.12;100.00;98261.44;5069884;28;20060;-47
2023/12/27 06:52:16;;;;;;;2.15;1.30;;;;;;;10.18;100.00;98259.81;5070373;28;20045;-45
2023/12/27 06:54:43;;;;;;;8.10;1.70;;;;;;;10.20;100.00;98243.63;5069833;28;20044;-48
2023/12/27 06:57:10;;;;;;;7.60;1.92;;;;;;;10.23;100.00;98253.06;5082666;28;20052;-48
2023/12/27 06:59:38;;;;;;;4.10;1.38;;;;;;;10.23;100.00;98253.06;5070039;28;20049;-46
2023/12/27 07:02:07;;;;;;;8.48;2.38;;;;;;;10.25;100.00;98242.41;5069801;28;20056;-49
2023/12/27 07:04:35;;;;;;;6.05;1.73;;;;;;;10.27;100.00;98223.44;5083032;28;20306;-48
2023/12/27 07:07:03;;;;;;;2.92;1.42;;;;;;;10.29;100.00;98202.50;5076444;28;20047;-46
2023/12/27 07:09:31;;;;;;;11.07;3.42;;;;;;;10.34;100.00;98204.81;5064623;28;20056;-46
2023/12/27 07:11:58;;;;;;;1.10;0.63;;;;;;;10.42;100.00;98210.31;5065661;28;20045;-47
2023/12/27 07:14:26;;;;;;;5.97;1.23;;;;;;;10.49;100.00;98188.09;5070045;28;20056;-49
2023/12/27 07:16:53;;;;;;;1.70;0.40;;;;;;;10.56;100.00;98177.81;5069218;28;20055;-56
2023/12/27 07:19:21;;;;;;;2.95;0.30;;;;;;;10.60;100.00;98172.22;5069685;28;20059;-48
2023/12/27 07:21:48;;;;;;;1.48;0.68;;;;;;;10.65;100.00;98174.53;5077989;28;20040;-47
2023/12/27 07:24:16;;;;;;;3.80;0.50;;;;;;;10.69;100.00;98169.78;5072728;28;20585;-46
2023/12/27 07:26:44;;;;;;;5.60;2.28;;;;;;;10.71;100.00;98156.31;5058031;28;20464;-46
2023/12/27 07:29:12;;;;;;;1.90;1.10;;;;;;;10.74;100.00;98161.03;5071712;28;20040;-49
2023/12/27 07:31:39;;;;;;;3.50;1.02;;;;;;;10.73;100.00;98153.94;5080440;28;20056;-50
2023/12/27 07:34:07;;;;;;;3.45;0.82;;;;;;;10.76;100.00;98153.13;5069625;28;20052;-49
2023/12/27 07:36:34;;;;;;;3.97;1.02;;;;;;;10.79;100.00;98124.63;5069472;28;20528;-48
2023/12/27 07:39:05;;;;;;;6.05;1.25;;;;;;;10.81;100.00;98131.31;5081827;28;20060;-46
2023/12/27 07:41:33;;;;;;;4.60;2.05;;;;;;;10.82;100.00;98129.34;5069459;28;21220;-48
2023/12/27 07:44:01;;;;;;;2.38;0.80;;;;;;;10.82;100.00;98123.81;5082434;28;20049;-49
2023/12/27 07:46:28;;;;;;;5.70;0.98;;;;;;;10.85;100.00;98120.22;5067963;28;20060;-47
2023/12/27 07:48:55;;;;;;;2.58;1.33;;;;;;;10.88;100.00;98120.16;5054425;28;20063;-48
2023/12/27 07:51:23;;;;;;;4.40;2.13;;;;;;;10.87;100.00;98103.97;5068647;28;20524;-47
2023/12/27 07:53:50;;;;;;;1.27;0.70;;;;;;;10.89;100.00;98101.59;5080268;28;20551;-49
2023/12/27 07:56:18;;;;;;;3.08;0.77;;;;;;;10.90;100.00;98103.16;5069002;28;20080;-48
2023/12/27 07:58:47;;;;;;;6.10;0.77;;;;;;;10.92;100.00;98100.75;5080593;28;20052;-53
2023/12/27 08:01:14;;;;;;;2.92;1.00;;;;;;;10.93;100.00;98097.56;5068057;28;20060;-48
2023/12/27 08:03:44;;;;;;;3.05;0.80;;;;;;;10.96;100.00;98090.47;5068977;28;20044;-48
2023/12/27 08:06:12;;;;;;;1.13;0.68;;;;;;;10.99;100.00;98081.31;5068842;28;20049;-46
2023/12/27 08:08:39;;;;;;;5.93;1.00;;;;;;;11.02;100.00;98080.47;5063628;28;20045;-48
2023/12/27 08:11:08;;;;;;;2.60;0.68;;;;;;;11.02;100.00;98077.72;5057713;28;20057;-48
2023/12/27 08:13:36;;;;;;;2.67;0.60;;;;;;;11.02;100.00;98067.44;5062164;28;20059;-51
2023/12/27 08:16:04;;;;;;;3.08;0.40;;;;;;;11.04;100.00;98069.00;5074798;28;20154;-47
2023/12/27 08:18:32;;;;;;;1.02;0.43;;;;;;;11.04;100.00;98055.16;5068586;28;20052;-51
2023/12/27 08:20:59;;;;;;;4.15;1.00;;;;;;;11.04;100.00;98055.94;5067931;28;20044;-48
2023/12/27 08:23:26;;;;;;;1.98;0.20;;;;;;;11.04;100.00;98061.47;5076861;28;20048;-49
2023/12/27 08:25:54;;;;;;;1.95;0.40;;;;;;;11.06;100.00;98039.72;5072530;28;20041;-48
2023/12/27 08:28:21;;;;;;;2.10;0.90;;;;;;;11.07;100.00;98034.97;5068006;28;20051;-49
2023/12/27 08:30:50;;;;;;;1.15;0.30;;;;;;;11.07;100.00;98037.72;5068871;28;20051;-46
2023/12/27 08:33:17;;;;;;;1.52;0.20;;;;;;;11.07;100.00;98035.72;5069539;28;20049;-48
2023/12/27 08:35:44;;;;;;;1.30;0.10;;;;;;;11.09;100.00;98038.09;5077262;28;20067;-47
2023/12/27 08:38:12;;;;;;;0.73;0.65;;;;;;;11.10;100.00;98045.97;5077604;28;20060;-48
2023/12/27 08:40:39;;;;;;;1.38;0.20;;;;;;;11.12;100.00;98037.28;5071458;28;20400;-47
2023/12/27 08:43:06;;;;;;;0.00;0.00;;;;;;;11.09;100.00;98036.13;5078381;28;20059;-46
2023/12/27 08:45:34;;;;;;;0.43;0.15;;;;;;;11.09;100.00;98015.94;5071088;28;20045;-48
2023/12/27 08:48:02;;;;;;;1.35;0.10;;;;;;;11.08;100.00;98031.78;5067488;28;20044;-47
2023/12/27 08:50:30;;;;;;;1.55;0.28;;;;;;;11.08;100.00;98017.94;5067699;28;20063;-48
2023/12/27 08:52:57;;;;;;;0.65;0.08;;;;;;;11.09;100.00;98024.25;5066379;28;20048;-46
2023/12/27 08:55:24;;;;;;;0.22;0.20;;;;;;;11.11;100.00;97991.38;5065418;28;20525;-48
2023/12/27 08:57:52;;;;;;;1.00;0.10;;;;;;;11.15;100.00;98001.22;5066783;28;20059;-46
2023/12/27 09:00:20;;;;;;;0.35;0.10;;;;;;;11.21;100.00;97980.16;5062921;28;20143;-46
2023/12/27 09:02:48;;;;;;;0.60;0.10;;;;;;;11.26;100.00;97987.22;5059457;28;20409;-46
2023/12/27 09:05:15;;;;;;;0.77;0.17;;;;;;;11.29;100.00;97970.56;5067686;28;20051;-50
2023/12/27 09:07:42;;;;;;;1.27;0.10;;;;;;;11.31;100.00;97981.22;5073753;28;20048;-47
2023/12/27 09:10:10;;;;;;;0.10;0.10;;;;;;;11.31;100.00;97976.47;5055976;28;20071;-50
2023/12/27 09:12:41;;;;;;;1.30;0.10;;;;;;;11.31;100.00;97970.94;5077539;28;20067;-48
2023/12/27 09:15:09;;;;;;;0.70;0.20;;;;;;;11.31;100.00;97953.53;5066670;28;20386;-46
2023/12/27 09:17:37;;;;;;;0.38;0.10;;;;;;;11.32;100.00;97955.09;5066189;28;20048;-52
2023/12/27 09:20:07;;;;;;;0.52;0.28;;;;;;;11.31;100.00;97973.69;5067631;28;20056;-46
2023/12/27 09:22:36;;;;;;;2.55;0.22;;;;;;;11.31;100.00;97979.22;5066572;28;20040;-46
2023/12/27 09:25:05;;;;;;;0.20;0.20;;;;;;;11.32;100.00;97980.81;5076076;28;20482;-48
2023/12/27 09:27:33;;;;;;;0.85;0.50;;;;;;;11.33;100.00;97990.69;5073906;28;20048;-47
2023/12/27 09:30:00;;;;;;;1.27;0.38;;;;;;;11.34;100.00;97999.78;5078303;28;20048;-46
2023/12/27 09:32:28;;;;;;;0.50;0.30;;;;;;;11.35;100.00;97999.38;5066762;28;20047;-51
2023/12/27 09:34:55;;;;;;;4.45;0.95;;;;;;;11.33;100.00;97985.13;5065005;28;20043;-48
2023/12/27 09:37:23;;;;;;;1.10;0.30;;;;;;;11.33;100.00;97987.16;5080686;28;20041;-46
2023/12/27 09:39:51;;;;;;;2.72;0.22;;;;;;;11.33;100.00;98043.31;5067349;28;20056;-47
2023/12/27 09:42:18;;;;;;;0.20;0.20;;;;;;;11.17;100.00;98051.44;5070019;28;20037;-47
2023/12/27 09:44:48;;;;;;;0.57;0.20;;;;;;;10.93;100.00;98046.97;5076853;28;20045;-47
2023/12/27 09:47:17;;;;;;;3.03;0.55;;;;;;;10.67;100.00;98053.19;5079510;28;20044;-48
2023/12/27 09:49:45;;;;;;;0.20;0.10;;;;;;;10.48;100.00;98034.41;5087238;28;20052;-45
2023/12/27 09:52:14;;;;;;;1.48;0.40;;;;;;;10.30;100.00;98051.94;5086907;28;20055;-45
2023/12/27 09:54:41;;;;;;;0.60;0.38;;;;;;;10.21;100.00;98070.22;5086407;28;20142;-45
2023/12/27 09:57:09;;;;;;;0.75;0.20;;;;;;;10.14;100.00;98056.47;5086822;28;20524;-50
2023/12/27 09:59:40;;;;;;;0.10;0.10;;;;;;;10.08;100.00;98058.84;5086294;28;20055;-49
2023/12/27 10:02:17;;;;;;;0.40;0.13;;;;;;;10.01;100.00;98058.09;5087271;28;20051;-49
2023/12/27 10:05:08;;;;;;;0.40;0.40;;;;;;;9.94;100.00;98056.16;5087309;28;20047;-46
2023/12/27 10:07:39;;;;;;;0.25;0.20;;;;;;;9.91;100.00;98050.66;5087145;28;20059;-46
2023/12/27 10:10:10;;;;;;;0.33;0.20;;;;;;;9.89;100.00;98056.59;5089365;28;20390;-46
2023/12/27 10:12:54;;;;;;;1.10;0.10;;;;;;;9.84;100.00;98059.81;5090832;28;20040;-47
2023/12/27 10:15:22;;;;;;;0.28;0.10;;;;;;;9.83;100.00;98072.03;5091635;28;20052;-46
2023/12/27 10:17:49;;;;;;;0.10;0.10;;;;;;;9.80;100.00;98061.78;5089103;28;20048;-49
2023/12/27 10:20:33;;;;;;;0.20;0.10;;;;;;;9.80;100.00;98059.03;5090074;28;20044;-50
2023/12/27 10:23:01;;;;;;;1.15;0.20;;;;;;;9.79;100.00;98068.53;5084112;28;20048;-46
2023/12/27 10:25:29;;;;;;;0.03;0.03;;;;;;;9.79;100.00;98077.56;5089779;28;20433;-49
2023/12/27 10:27:56;;;;;;;0.10;0.10;;;;;;;9.79;100.00;98074.06;5090543;28;20048;-46
2023/12/27 10:30:25;;;;;;;0.40;0.15;;;;;;;9.77;100.00;98081.94;5090592;28;20048;-47
2023/12/27 10:32:59;;;;;;;0.70;0.38;;;;;;;9.76;100.00;98085.91;5090813;28;20051;-47
2023/12/27 10:35:28;;;;;;;0.85;0.22;;;;;;;9.76;100.00;98086.69;5090053;28;20496;-51
2023/12/27 10:37:59;;;;;;;0.20;0.20;;;;;;;9.77;100.00;98092.97;5090065;28;20059;-46
2023/12/27 10:40:27;;;;;;;0.90;0.45;;;;;;;9.77;100.00;98060.63;5084890;28;20048;-46
2023/12/27 10:42:54;;;;;;;0.08;0.08;;;;;;;9.78;100.00;98078.00;5090253;28;20056;-47
2023/12/27 10:45:22;;;;;;;0.77;0.70;;;;;;;9.78;100.00;98066.94;5090460;28;20051;-48
2023/12/27 10:48:00;;;;;;;0.32;0.22;;;;;;;9.78;100.00;98066.94;5071581;28;20044;-49
2023/12/27 10:50:30;;;;;;;1.10;0.30;;;;;;;9.76;100.00;98064.59;5083983;28;20383;-48
2023/12/27 10:53:06;;;;;;;0.40;0.20;;;;;;;9.78;100.00;98072.47;5089474;28;20040;-46
2023/12/27 10:55:36;;;;;;;0.40;0.40;;;;;;;9.80;100.00;98070.88;5081436;28;20052;-46
2023/12/27 10:58:15;;;;;;;0.38;0.35;;;;;;;9.81;100.00;98077.19;5088015;28;20056;-49
2023/12/27 11:00:43;;;;;;;0.40;0.20;;;;;;;9.82;100.00;98078.78;5083702;28;20051;-52
2023/12/27 11:03:12;;;;;;;0.43;0.30;;;;;;;9.84;100.00;98064.53;5077065;28;20052;-47
2023/12/27 11:05:41;;;;;;;2.38;1.38;;;;;;;9.84;100.00;98079.16;5089308;28;20054;-50
2023/12/27 11:08:13;;;;;;;1.25;0.47;;;;;;;9.85;100.00;98080.69;5079930;28;20502;-49
2023/12/27 11:10:42;;;;;;;1.65;0.90;;;;;;;9.87;100.00;98085.84;5080709;28;20060;-48
2023/12/27 11:13:11;;;;;;;0.80;0.55;;;;;;;9.85;100.00;98080.69;5087712;28;20432;-48
2023/12/27 11:15:44;;;;;;;1.67;0.63;;;;;;;9.85;100.00;98071.66;5083369;28;20033;-48
2023/12/27 11:18:12;;;;;;;0.35;0.20;;;;;;;9.85;100.00;98066.88;5085199;28;20730;-46
2023/12/27 11:20:40;;;;;;;0.70;0.20;;;;;;;9.86;100.00;98079.53;5088140;28;20043;-46
2023/12/27 11:23:08;;;;;;;1.80;0.35;;;;;;;9.87;100.00;98081.09;5080896;28;20052;-47
2023/12/27 11:25:36;;;;;;;0.45;0.30;;;;;;;9.88;100.00;98066.06;5088199;28;20040;-50
2023/12/27 11:28:04;;;;;;;0.77;0.30;;;;;;;9.88;100.00;98077.13;5087985;28;20112;-52
2023/12/27 11:30:32;;;;;;;1.13;0.32;;;;;;;9.90;100.00;98066.44;5080671;28;20037;-47
2023/12/27 11:33:01;;;;;;;0.25;0.20;;;;;;;9.92;100.00;98074.34;5075858;28;20704;-51